sensor_id;sensor_type;location;lat;lon;timestamp;pressure;altitude;pressure_sealevel;temperature;humidity
4972;BME280;2501;51.214;6.768;2024-02-26T00:02:00;99540.97;;;6.91;100.00
4972;BME280;2501;51.214;6.768;2024-02-26T00:04:28;99550.53;;;6.92;100.00
4972;BME280;2501;51.214;6.768;2024-02-26T00:06:57;99557.47;;;6.98;100.00
4972;BME280;2501;51.214;6.768;2024-02-26T00:09:25;99535.78;;;7.37;100.00
4972;BME280;2501;51.214;6.768;2024-02-26T00:11:56;99536.63;;;7.34;100.00
4972;BME280;2501;51.214;6.768;2024-02-26T00:14:25;99531.41;;;7.03;100.00
4972;BME280;2501;51.214;6.768;2024-02-26T00:16:53;99545.31;;;7.03;100.00
4972;BME280;2501;51.214;6.768;2024-02-26T00:19:21;99539.25;;;7.07;100.00
4972;BME280;2501;51.214;6.768;2024-02-26T00:21:50;99538.38;;;7.04;100.00
4972;BME280;2501;51.214;6.768;2024-02-26T00:24:19;99528.81;;;7.03;100.00
4972;BME280;2501;51.214;6.768;2024-02-26T00:26:47;99533.16;;;7.04;100.00
4972;BME280;2501;51.214;6.768;2024-02-26T00:29:22;99538.34;;;6.94;100.00
4972;BME280;2501;51.214;6.768;2024-02-26T00:31:51;99540.97;;;6.97;100.00
4972;BME280;2501;51.214;6.768;2024-02-26T00:34:19;99531.41;;;6.99;100.00
4972;BME280;2501;51.214;6.768;2024-02-26T00:36:48;99531.41;;;7.10;100.00
4972;BME280;2501;51.214;6.768;2024-02-26T00:39:16;99526.22;;;7.03;100.00
4972;BME280;2501;51.214;6.768;2024-02-26T00:41:44;99533.16;;;7.11;100.00
4972;BME280;2501;51.214;6.768;2024-02-26T00:44:13;99524.47;;;6.98;100.00
4972;BME280;2501;51.214;6.768;2024-02-26T00:46:44;99530.53;;;7.29;100.00
4972;BME280;2501;51.214;6.768;2024-02-26T00:49:12;99529.69;;;7.05;100.00
4972;BME280;2501;51.214;6.768;2024-02-26T00:51:41;99527.94;;;7.01;100.00
4972;BME280;2501;51.214;6.768;2024-02-26T00:54:09;99534.91;;;7.24;100.00
4972;BME280;2501;51.214;6.768;2024-02-26T00:56:38;99531.41;;;7.13;100.00
4972;BME280;2501;51.214;6.768;2024-02-26T00:59:06;99525.34;;;7.02;100.00
4972;BME280;2501;51.214;6.768;2024-02-26T01:01:35;99527.94;;;7.04;100.00
4972;BME280;2501;51.214;6.768;2024-02-26T01:04:06;99534.88;;;7.11;100.00
4972;BME280;2501;51.214;6.768;2024-02-26T01:06:34;99534.91;;;7.03;100.00
4972;BME280;2501;51.214;6.768;2024-02-26T01:09:03;99528.81;;;7.21;100.00
4972;BME280;2501;51.214;6.768;2024-02-26T01:11:31;99535.69;;;7.80;100.00
4972;BME280;2501;51.214;6.768;2024-02-26T01:14:00;99537.50;;;7.20;100.00
4972;BME280;2501;51.214;6.768;2024-02-26T01:16:29;99536.66;;;7.19;100.00
4972;BME280;2501;51.214;6.768;2024-02-26T01:18:57;99531.44;;;7.27;100.00
4972;BME280;2501;51.214;6.768;2024-02-26T01:21:28;99531.44;;;7.42;100.00
4972;BME280;2501;51.214;6.768;2024-02-26T01:23:57;99527.88;;;7.77;100.00
4972;BME280;2501;51.214;6.768;2024-02-26T01:26:26;99526.22;;;7.42;100.00
4972;BME280;2501;51.214;6.768;2024-02-26T01:28:54;99527.91;;;7.64;100.00
4972;BME280;2501;51.214;6.768;2024-02-26T01:31:23;99524.47;;;7.44;100.00
4972;BME280;2501;51.214;6.768;2024-02-26T01:33:51;99527.09;;;7.20;100.00
4972;BME280;2501;51.214;6.768;2024-02-26T01:36:20;99532.31;;;7.08;100.00
4972;BME280;2501;51.214;6.768;2024-02-26T01:38:51;99534.88;;;7.12;100.00
4972;BME280;2501;51.214;6.768;2024-02-26T01:41:19;99535.75;;;7.01;100.00
4972;BME280;2501;51.214;6.768;2024-02-26T01:43:48;99527.06;;;7.14;100.00
4972;BME280;2501;51.214;6.768;2024-02-26T01:46:17;99542.72;;;6.89;100.00
4972;BME280;2501;51.214;6.768;2024-02-26T01:48:47;99531.38;;;6.77;100.00
4972;BME280;2501;51.214;6.768;2024-02-26T01:51:15;99531.41;;;6.89;100.00
4972;BME280;2501;51.214;6.768;2024-02-26T01:53:45;99526.22;;;7.16;100.00
4972;BME280;2501;51.214;6.768;2024-02-26T01:56:18;99530.53;;;7.13;100.00
4972;BME280;2501;51.214;6.768;2024-02-26T01:58:48;99527.09;;;6.92;100.00
4972;BME280;2501;51.214;6.768;2024-02-26T02:01:18;99533.13;;;6.76;100.00
4972;BME280;2501;51.214;6.768;2024-02-26T02:03:48;99530.56;;;7.04;100.00
4972;BME280;2501;51.214;6.768;2024-02-26T02:06:17;99534.84;;;6.77;100.00
4972;BME280;2501;51.214;6.768;2024-02-26T02:08:47;99541.75;;;6.60;100.00
4972;BME280;2501;51.214;6.768;2024-02-26T02:11:19;99540.94;;;6.70;100.00
4972;BME280;2501;51.214;6.768;2024-02-26T02:13:47;99547.88;;;6.70;100.00
4972;BME280;2501;51.214;6.768;2024-02-26T02:16:16;99542.66;;;6.54;100.00
4972;BME280;2501;51.214;6.768;2024-02-26T02:18:44;99547.81;;;6.44;100.00
4972;BME280;2501;51.214;6.768;2024-02-26T02:21:15;99548.72;;;6.52;100.00
4972;BME280;2501;51.214;6.768;2024-02-26T02:23:44;99550.41;;;6.45;100.00
4972;BME280;2501;51.214;6.768;2024-02-26T02:26:15;99557.34;;;6.39;100.00
4972;BME280;2501;51.214;6.768;2024-02-26T02:28:44;99543.44;;;6.37;100.00
4972;BME280;2501;51.214;6.768;2024-02-26T02:31:13;99535.63;;;6.43;100.00
4972;BME280;2501;51.214;6.768;2024-02-26T02:33:42;99530.47;;;6.50;100.00
4972;BME280;2501;51.214;6.768;2024-02-26T02:36:11;99535.63;;;6.43;100.00
4972;BME280;2501;51.214;6.768;2024-02-26T02:38:48;99534.75;;;6.32;100.00
4972;BME280;2501;51.214;6.768;2024-02-26T02:41:18;99535.63;;;6.37;100.00
4972;BME280;2501;51.214;6.768;2024-02-26T02:43:47;99539.16;;;6.54;100.00
4972;BME280;2501;51.214;6.768;2024-02-26T02:46:15;99536.50;;;6.37;100.00
4972;BME280;2501;51.214;6.768;2024-02-26T02:48:43;99537.34;;;6.30;100.00
4972;BME280;2501;51.214;6.768;2024-02-26T02:51:12;99529.47;;;6.13;100.00
4972;BME280;2501;51.214;6.768;2024-02-26T02:53:40;99533.78;;;6.08;100.00
4972;BME280;2501;51.214;6.768;2024-02-26T02:56:11;99533.81;;;6.14;100.00
4972;BME280;2501;51.214;6.768;2024-02-26T02:58:40;99533.84;;;6.25;100.00
4972;BME280;2501;51.214;6.768;2024-02-26T03:01:08;99534.66;;;6.10;100.00
4972;BME280;2501;51.214;6.768;2024-02-26T03:03:37;99529.50;;;6.21;100.00
4972;BME280;2501;51.214;6.768;2024-02-26T03:06:06;99527.78;;;6.27;100.00
4972;BME280;2501;51.214;6.768;2024-02-26T03:08:34;99533.88;;;6.33;100.00
4972;BME280;2501;51.214;6.768;2024-02-26T03:11:05;99537.31;;;6.19;100.00
4972;BME280;2501;51.214;6.768;2024-02-26T03:13:36;99529.47;;;6.16;100.00
4972;BME280;2501;51.214;6.768;2024-02-26T03:16:05;99540.78;;;6.26;100.00
4972;BME280;2501;51.214;6.768;2024-02-26T03:18:33;99521.72;;;6.22;100.00
4972;BME280;2501;51.214;6.768;2024-02-26T03:21:02;99535.50;;;6.03;100.00
4972;BME280;2501;51.214;6.768;2024-02-26T03:23:30;99521.72;;;6.22;100.00
4972;BME280;2501;51.214;6.768;2024-02-26T03:26:02;99527.69;;;6.08;100.00
4972;BME280;2501;51.214;6.768;2024-02-26T03:28:30;99526.84;;;6.09;100.00
4972;BME280;2501;51.214;6.768;2024-02-26T03:31:01;99518.16;;;6.02;100.00
4972;BME280;2501;51.214;6.768;2024-02-26T03:33:30;99524.28;;;6.16;100.00
4972;BME280;2501;51.214;6.768;2024-02-26T03:35:59;99528.56;;;6.07;100.00
4972;BME280;2501;51.214;6.768;2024-02-26T03:38:28;99519.88;;;6.06;100.00
4972;BME280;2501;51.214;6.768;2024-02-26T03:40:56;99529.47;;;6.13;100.00
4972;BME280;2501;51.214;6.768;2024-02-26T03:43:25;99515.59;;;6.17;100.00
4972;BME280;2501;51.214;6.768;2024-02-26T03:45:53;99524.25;;;6.13;100.00
4972;BME280;2501;51.214;6.768;2024-02-26T03:48:28;99519.88;;;6.08;100.00
4972;BME280;2501;51.214;6.768;2024-02-26T03:50:56;99523.38;;;6.11;100.00
4972;BME280;2501;51.214;6.768;2024-02-26T03:53:25;99521.56;;;5.95;100.00
4972;BME280;2501;51.214;6.768;2024-02-26T03:55:54;99528.59;;;6.05;100.00
4972;BME280;2501;51.214;6.768;2024-02-26T03:58:22;99526.00;;;6.14;100.00
4972;BME280;2501;51.214;6.768;2024-02-26T04:00:51;99531.16;;;6.08;100.00
4972;BME280;2501;51.214;6.768;2024-02-26T04:03:19;99530.31;;;6.09;100.00
4972;BME280;2501;51.214;6.768;2024-02-26T04:05:50;99539.00;;;6.11;100.00
4972;BME280;2501;51.214;6.768;2024-02-26T04:08:19;99536.41;;;6.13;100.00
4972;BME280;2501;51.214;6.768;2024-02-26T04:10:47;99537.25;;;6.12;100.00
4972;BME280;2501;51.214;6.768;2024-02-26T04:13:17;99542.50;;;6.15;100.00
4972;BME280;2501;51.214;6.768;2024-02-26T04:15:46;99537.91;;;5.76;100.00
4972;BME280;2501;51.214;6.768;2024-02-26T04:18:14;99541.59;;;6.04;100.00
4972;BME280;2501;51.214;6.768;2024-02-26T04:20:42;99539.00;;;6.05;100.00
4972;BME280;2501;51.214;6.768;2024-02-26T04:23:14;99538.78;;;5.78;100.00
4972;BME280;2501;51.214;6.768;2024-02-26T04:25:42;99544.88;;;5.80;100.00
4972;BME280;2501;51.214;6.768;2024-02-26T04:28:11;99542.34;;;5.89;100.00
4972;BME280;2501;51.214;6.768;2024-02-26T04:30:40;99547.47;;;5.80;100.00
4972;BME280;2501;51.214;6.768;2024-02-26T04:33:08;99561.31;;;5.71;100.00
4972;BME280;2501;51.214;6.768;2024-02-26T04:35:37;99556.09;;;5.70;100.00
4972;BME280;2501;51.214;6.768;2024-02-26T04:38:05;99558.75;;;5.80;100.00
4972;BME280;2501;51.214;6.768;2024-02-26T04:40:36;99556.13;;;5.76;100.00
4972;BME280;2501;51.214;6.768;2024-02-26T04:43:05;99558.75;;;5.80;100.00
4972;BME280;2501;51.214;6.768;2024-02-26T04:45:33;99569.00;;;5.53;100.00
4972;BME280;2501;51.214;6.768;2024-02-26T04:48:02;99565.66;;;5.69;100.00
4972;BME280;2501;51.214;6.768;2024-02-26T04:50:30;99570.06;;;5.82;100.00
4972;BME280;2501;51.214;6.768;2024-02-26T04:52:59;99574.25;;;5.62;100.00
4972;BME280;2501;51.214;6.768;2024-02-26T04:55:27;99564.78;;;5.69;100.00
4972;BME280;2501;51.214;6.768;2024-02-26T04:57:58;99563.72;;;5.45;100.00
4972;BME280;2501;51.214;6.768;2024-02-26T05:00:27;99570.66;;;5.43;100.00
4972;BME280;2501;51.214;6.768;2024-02-26T05:02:55;99571.59;;;5.56;100.00
4972;BME280;2501;51.214;6.768;2024-02-26T05:05:24;99573.25;;;5.43;100.00
4972;BME280;2501;51.214;6.768;2024-02-26T05:07:52;99570.69;;;5.48;100.00
4972;BME280;2501;51.214;6.768;2024-02-26T05:10:20;99575.00;;;5.46;100.00
4972;BME280;2501;51.214;6.768;2024-02-26T05:12:49;99572.22;;;5.24;100.00
4972;BME280;2501;51.214;6.768;2024-02-26T05:15:20;99580.88;;;5.23;100.00
4972;BME280;2501;51.214;6.768;2024-02-26T05:17:48;99579.25;;;5.33;100.00
4972;BME280;2501;51.214;6.768;2024-02-26T05:20:18;99571.41;;;5.30;100.00
4972;BME280;2501;51.214;6.768;2024-02-26T05:22:46;99576.63;;;5.30;100.00
4972;BME280;2501;51.214;6.768;2024-02-26T05:25:16;99574.97;;;5.43;100.00
4972;BME280;2501;51.214;6.768;2024-02-26T05:27:44;99588.97;;;5.58;100.00
4972;BME280;2501;51.214;6.768;2024-02-26T05:30:13;99587.13;;;5.44;100.00
4972;BME280;2501;51.214;6.768;2024-02-26T05:32:45;99600.06;;;5.38;100.00
4972;BME280;2501;51.214;6.768;2024-02-26T05:35:13;99598.34;;;5.35;100.00
4972;BME280;2501;51.214;6.768;2024-02-26T05:37:42;99593.97;;;5.37;100.00
4972;BME280;2501;51.214;6.768;2024-02-26T05:40:11;99596.63;;;5.40;100.00
4972;BME280;2501;51.214;6.768;2024-02-26T05:42:40;99598.38;;;5.44;100.00
4972;BME280;2501;51.214;6.768;2024-02-26T05:45:10;99594.00;;;5.39;100.00
4972;BME280;2501;51.214;6.768;2024-02-26T05:47:38;99600.13;;;5.44;100.00
4972;BME280;2501;51.214;6.768;2024-02-26T05:50:11;99605.31;;;5.44;100.00
4972;BME280;2501;51.214;6.768;2024-02-26T05:52:40;99609.50;;;5.25;100.00
4972;BME280;2501;51.214;6.768;2024-02-26T05:55:09;99619.00;;;5.24;100.00
4972;BME280;2501;51.214;6.768;2024-02-26T05:57:38;99615.56;;;5.27;100.00
4972;BME280;2501;51.214;6.768;2024-02-26T06:00:08;99620.81;;;5.30;100.00
4972;BME280;2501;51.214;6.768;2024-02-26T06:02:38;99616.50;;;5.34;100.00
4972;BME280;2501;51.214;6.768;2024-02-26T06:05:06;99623.31;;;5.22;100.00
4972;BME280;2501;51.214;6.768;2024-02-26T06:07:38;99625.06;;;5.22;100.00
4972;BME280;2501;51.214;6.768;2024-02-26T06:10:07;99634.53;;;5.15;100.00
4972;BME280;2501;51.214;6.768;2024-02-26T06:12:35;99625.00;;;5.14;100.00
4972;BME280;2501;51.214;6.768;2024-02-26T06:15:05;99634.66;;;5.29;100.00
4972;BME280;2501;51.214;6.768;2024-02-26T06:17:34;99632.84;;;5.19;100.00
4972;BME280;2501;51.214;6.768;2024-02-26T06:20:03;99636.34;;;5.24;100.00
4972;BME280;2501;51.214;6.768;2024-02-26T06:22:39;99637.16;;;5.20;100.00
4972;BME280;2501;51.214;6.768;2024-02-26T06:25:08;99643.38;;;5.34;100.00
4972;BME280;2501;51.214;6.768;2024-02-26T06:27:37;99647.78;;;5.43;100.00
4972;BME280;2501;51.214;6.768;2024-02-26T06:30:06;99652.13;;;5.44;100.00
4972;BME280;2501;51.214;6.768;2024-02-26T06:32:36;99661.53;;;5.30;100.00
4972;BME280;2501;51.214;6.768;2024-02-26T06:35:05;99659.81;;;5.30;100.00
4972;BME280;2501;51.214;6.768;2024-02-26T06:37:35;99662.31;;;5.21;100.00
4972;BME280;2501;51.214;6.768;2024-02-26T06:40:08;99670.94;;;5.17;100.00
4972;BME280;2501;51.214;6.768;2024-02-26T06:42:36;99674.56;;;5.33;100.00
4972;BME280;2501;51.214;6.768;2024-02-26T06:45:05;99676.25;;;5.28;100.00
4972;BME280;2501;51.214;6.768;2024-02-26T06:47:34;99682.34;;;5.31;100.00
4972;BME280;2501;51.214;6.768;2024-02-26T06:50:03;99685.78;;;5.29;100.00
4972;BME280;2501;51.214;6.768;2024-02-26T06:52:32;99689.22;;;5.26;100.00
4972;BME280;2501;51.214;6.768;2024-02-26T06:55:00;99687.63;;;5.40;100.00
4972;BME280;2501;51.214;6.768;2024-02-26T06:57:33;99693.50;;;5.22;100.00
4972;BME280;2501;51.214;6.768;2024-02-26T07:00:01;99696.94;;;5.17;100.00
4972;BME280;2501;51.214;6.768;2024-02-26T07:02:30;99699.63;;;5.28;100.00
4972;BME280;2501;51.214;6.768;2024-02-26T07:04:58;99698.69;;;5.21;100.00
4972;BME280;2501;51.214;6.768;2024-02-26T07:07:28;99703.81;;;5.13;100.00
4972;BME280;2501;51.214;6.768;2024-02-26T07:09:57;99709.09;;;5.21;100.00
4972;BME280;2501;51.214;6.768;2024-02-26T07:12:28;99712.47;;;5.12;100.00
4972;BME280;2501;51.214;6.768;2024-02-26T07:15:00;99716.00;;;5.17;100.00
4972;BME280;2501;51.214;6.768;2024-02-26T07:17:28;99711.69;;;5.21;100.00
4972;BME280;2501;51.214;6.768;2024-02-26T07:19:58;99718.75;;;5.31;100.00
4972;BME280;2501;51.214;6.768;2024-02-26T07:22:29;99723.06;;;5.31;100.00
4972;BME280;2501;51.214;6.768;2024-02-26T07:24:58;99724.69;;;5.21;100.00
4972;BME280;2501;51.214;6.768;2024-02-26T07:27:26;99724.75;;;5.25;100.00
4972;BME280;2501;51.214;6.768;2024-02-26T07:29:55;99729.00;;;5.17;100.00
4972;BME280;2501;51.214;6.768;2024-02-26T07:32:26;99726.59;;;5.36;100.00
4972;BME280;2501;51.214;6.768;2024-02-26T07:34:55;99723.81;;;5.17;100.00
4972;BME280;2501;51.214;6.768;2024-02-26T07:37:23;99725.63;;;5.26;100.00
4972;BME280;2501;51.214;6.768;2024-02-26T07:39:52;99732.28;;;5.04;100.00
4972;BME280;2501;51.214;6.768;2024-02-26T07:42:20;99735.16;;;5.25;100.00
4972;BME280;2501;51.214;6.768;2024-02-26T07:44:49;99735.50;;;5.60;100.00
4972;BME280;2501;51.214;6.768;2024-02-26T07:47:18;99735.41;;;5.48;100.00
4972;BME280;2501;51.214;6.768;2024-02-26T07:49:49;99737.00;;;5.39;100.00
4972;BME280;2501;51.214;6.768;2024-02-26T07:52:17;99742.81;;;5.13;100.00
4972;BME280;2501;51.214;6.768;2024-02-26T07:54:46;99747.41;;;5.39;100.00
4972;BME280;2501;51.214;6.768;2024-02-26T07:57:14;99745.47;;;5.18;100.00
4972;BME280;2501;51.214;6.768;2024-02-26T07:59:43;99744.59;;;5.17;100.00
4972;BME280;2501;51.214;6.768;2024-02-26T08:02:15;99752.34;;;5.13;100.00
4972;BME280;2501;51.214;6.768;2024-02-26T08:04:43;99752.41;;;5.20;100.00
4972;BME280;2501;51.214;6.768;2024-02-26T08:07:14;99752.59;;;5.37;100.00
4972;BME280;2501;51.214;6.768;2024-02-26T08:09:43;99765.59;;;5.34;100.00
4972;BME280;2501;51.214;6.768;2024-02-26T08:12:11;99768.97;;;5.29;100.00
4972;BME280;2501;51.214;6.768;2024-02-26T08:14:40;99767.47;;;5.47;100.00
4972;BME280;2501;51.214;6.768;2024-02-26T08:17:09;99768.19;;;5.37;100.00
4972;BME280;2501;51.214;6.768;2024-02-26T08:19:37;99776.69;;;5.22;100.00
4972;BME280;2501;51.214;6.768;2024-02-26T08:22:06;99782.97;;;5.41;100.00
4972;BME280;2501;51.214;6.768;2024-02-26T08:24:38;99777.94;;;5.56;100.00
4972;BME280;2501;51.214;6.768;2024-02-26T08:27:06;99783.16;;;5.58;100.00
4972;BME280;2501;51.214;6.768;2024-02-26T08:29:35;99788.03;;;5.28;100.00
4972;BME280;2501;51.214;6.768;2024-02-26T08:32:04;99795.00;;;5.30;100.00
4972;BME280;2501;51.214;6.768;2024-02-26T08:34:33;99786.47;;;5.43;100.00
4972;BME280;2501;51.214;6.768;2024-02-26T08:37:01;99790.03;;;5.50;100.00
4972;BME280;2501;51.214;6.768;2024-02-26T08:39:30;99794.75;;;5.86;100.00
4972;BME280;2501;51.214;6.768;2024-02-26T08:42:01;99798.09;;;5.77;100.00
4972;BME280;2501;51.214;6.768;2024-02-26T08:44:29;99795.56;;;5.83;100.00
4972;BME280;2501;51.214;6.768;2024-02-26T08:46:58;99794.41;;;5.57;100.00
4972;BME280;2501;51.214;6.768;2024-02-26T08:49:26;99797.13;;;5.65;100.00
4972;BME280;2501;51.214;6.768;2024-02-26T08:51:55;99795.56;;;5.82;100.00
4972;BME280;2501;51.214;6.768;2024-02-26T08:54:23;99812.25;;;6.01;100.00
4972;BME280;2501;51.214;6.768;2024-02-26T08:56:51;99806.03;;;5.86;100.00
4972;BME280;2501;51.214;6.768;2024-02-26T08:59:23;99810.97;;;5.62;100.00
4972;BME280;2501;51.214;6.768;2024-02-26T09:01:51;99818.88;;;5.74;100.00
4972;BME280;2501;51.214;6.768;2024-02-26T09:04:19;99811.31;;;5.94;100.00
4972;BME280;2501;51.214;6.768;2024-02-26T09:06:48;99812.91;;;5.83;100.00
4972;BME280;2501;51.214;6.768;2024-02-26T09:09:17;99810.28;;;5.81;100.00
4972;BME280;2501;51.214;6.768;2024-02-26T09:11:45;99817.97;;;5.68;100.00
4972;BME280;2501;51.214;6.768;2024-02-26T09:14:14;99817.25;;;5.84;100.00
4972;BME280;2501;51.214;6.768;2024-02-26T09:16:45;99817.13;;;5.72;100.00
4972;BME280;2501;51.214;6.768;2024-02-26T09:19:13;99821.59;;;5.83;100.00
4972;BME280;2501;51.214;6.768;2024-02-26T09:21:42;99818.00;;;5.74;100.00
4972;BME280;2501;51.214;6.768;2024-02-26T09:24:11;99830.91;;;5.63;100.00
4972;BME280;2501;51.214;6.768;2024-02-26T09:26:40;99837.97;;;5.75;100.00
4972;BME280;2501;51.214;6.768;2024-02-26T09:29:08;99834.19;;;5.45;100.00
4972;BME280;2501;51.214;6.768;2024-02-26T09:31:37;99833.41;;;5.55;100.00
4972;BME280;2501;51.214;6.768;2024-02-26T09:34:09;99840.44;;;5.63;100.00
4972;BME280;2501;51.214;6.768;2024-02-26T09:36:37;99842.22;;;5.65;100.00
4972;BME280;2501;51.214;6.768;2024-02-26T09:39:06;99836.94;;;5.59;100.00
4972;BME280;2501;51.214;6.768;2024-02-26T09:41:37;99848.16;;;5.55;100.00
4972;BME280;2501;51.214;6.768;2024-02-26T09:44:06;99849.97;;;5.60;100.00
4972;BME280;2501;51.214;6.768;2024-02-26T09:46:34;99853.53;;;5.69;100.00
4972;BME280;2501;51.214;6.768;2024-02-26T09:49:03;99860.53;;;5.76;100.00
4972;BME280;2501;51.214;6.768;2024-02-26T09:51:35;99859.69;;;5.77;100.00
4972;BME280;2501;51.214;6.768;2024-02-26T09:54:03;99865.63;;;5.65;100.00
4972;BME280;2501;51.214;6.768;2024-02-26T09:56:32;99863.16;;;5.79;100.00
4972;BME280;2501;51.214;6.768;2024-02-26T09:59:01;99876.09;;;5.73;100.00
4972;BME280;2501;51.214;6.768;2024-02-26T10:01:30;99877.06;;;5.81;100.00
4972;BME280;2501;51.214;6.768;2024-02-26T10:04:00;99878.81;;;5.80;100.00
4972;BME280;2501;51.214;6.768;2024-02-26T10:06:29;99881.31;;;5.71;100.00
4972;BME280;2501;51.214;6.768;2024-02-26T10:09:00;99888.25;;;5.74;100.00
4972;BME280;2501;51.214;6.768;2024-02-26T10:11:32;99886.56;;;5.77;100.00
4972;BME280;2501;51.214;6.768;2024-02-26T10:14:00;99884.88;;;5.79;100.00
4972;BME280;2501;51.214;6.768;2024-02-26T10:16:29;99890.00;;;5.73;100.00
4972;BME280;2501;51.214;6.768;2024-02-26T10:18:58;99892.06;;;6.00;100.00
4972;BME280;2501;51.214;6.768;2024-02-26T10:21:27;99891.03;;;5.86;100.00
4972;BME280;2501;51.214;6.768;2024-02-26T10:23:55;99902.53;;;6.08;100.00
4972;BME280;2501;51.214;6.768;2024-02-26T10:26:26;99908.41;;;5.90;100.00
4972;BME280;2501;51.214;6.768;2024-02-26T10:28:59;99905.03;;;5.97;100.00
4972;BME280;2501;51.214;6.768;2024-02-26T10:31:29;99905.81;;;5.90;100.00
4972;BME280;2501;51.214;6.768;2024-02-26T10:33:57;99905.97;;;6.02;100.00
4972;BME280;2501;51.214;6.768;2024-02-26T10:36:28;99906.84;;;6.01;100.00
4972;BME280;2501;51.214;6.768;2024-02-26T10:38:56;99911.97;;;5.95;100.00
4972;BME280;2501;51.214;6.768;2024-02-26T10:41:27;99919.84;;;6.01;100.00
4972;BME280;2501;51.214;6.768;2024-02-26T10:43:56;99918.00;;;5.92;100.00
4972;BME280;2501;51.214;6.768;2024-02-26T10:46:25;99919.78;;;5.97;100.00
4972;BME280;2501;51.214;6.768;2024-02-26T10:48:54;99927.78;;;6.13;100.00
4972;BME280;2501;51.214;6.768;2024-02-26T10:51:26;99926.88;;;6.11;100.00
4972;BME280;2501;51.214;6.768;2024-02-26T10:53:56;99935.56;;;6.12;100.00
4972;BME280;2501;51.214;6.768;2024-02-26T10:56:30;99932.22;;;6.20;100.00
4972;BME280;2501;51.214;6.768;2024-02-26T10:59:03;99940.72;;;6.06;100.00
4972;BME280;2501;51.214;6.768;2024-02-26T11:01:35;99941.81;;;6.27;100.00
4972;BME280;2501;51.214;6.768;2024-02-26T11:04:06;99944.47;;;6.34;100.00
4972;BME280;2501;51.214;6.768;2024-02-26T11:06:37;99943.66;;;6.36;100.00
4972;BME280;2501;51.214;6.768;2024-02-26T11:09:06;99953.00;;;6.17;100.00
4972;BME280;2501;51.214;6.768;2024-02-26T11:11:41;99960.84;;;6.23;100.00
4972;BME280;2501;51.214;6.768;2024-02-26T11:14:11;99956.88;;;6.60;100.00
4972;BME280;2501;51.214;6.768;2024-02-26T11:16:41;99959.25;;;6.35;100.00
4972;BME280;2501;51.214;6.768;2024-02-26T11:19:10;99960.25;;;6.47;100.00
4972;BME280;2501;51.214;6.768;2024-02-26T11:21:40;99962.19;;;6.68;100.00
4972;BME280;2501;51.214;6.768;2024-02-26T11:24:10;99956.13;;;6.69;100.00
4972;BME280;2501;51.214;6.768;2024-02-26T11:26:46;99963.06;;;6.70;100.00
4972;BME280;2501;51.214;6.768;2024-02-26T11:29:20;99965.41;;;6.40;100.00
4972;BME280;2501;51.214;6.768;2024-02-26T11:31:50;99976.66;;;6.39;100.00
4972;BME280;2501;51.214;6.768;2024-02-26T11:34:19;99970.38;;;6.18;100.00
4972;BME280;2501;51.214;6.768;2024-02-26T11:36:49;99972.38;;;6.47;100.00
4972;BME280;2501;51.214;6.768;2024-02-26T11:39:17;99972.34;;;6.44;100.00
4972;BME280;2501;51.214;6.768;2024-02-26T11:41:49;99973.22;;;6.44;100.00
4972;BME280;2501;51.214;6.768;2024-02-26T11:44:29;99973.19;;;6.38;100.00
4972;BME280;2501;51.214;6.768;2024-02-26T11:46:57;99975.75;;;6.35;100.00
4972;BME280;2501;51.214;6.768;2024-02-26T11:49:30;99965.97;;;6.14;100.00
4972;BME280;2501;51.214;6.768;2024-02-26T11:52:05;99979.28;;;6.43;100.00
4972;BME280;2501;51.214;6.768;2024-02-26T11:54:43;99968.94;;;6.49;100.00
4972;BME280;2501;51.214;6.768;2024-02-26T11:57:28;99975.88;;;6.47;100.00
4972;BME280;2501;51.214;6.768;2024-02-26T12:00:12;99987.16;;;6.46;100.00
4972;BME280;2501;51.214;6.768;2024-02-26T12:02:44;99983.97;;;6.79;100.00
4972;BME280;2501;51.214;6.768;2024-02-26T12:05:15;99984.31;;;6.26;100.00
4972;BME280;2501;51.214;6.768;2024-02-26T12:07:46;99984.53;;;6.46;100.00
4972;BME280;2501;51.214;6.768;2024-02-26T12:10:16;99987.22;;;6.52;100.00
4972;BME280;2501;51.214;6.768;2024-02-26T12:12:49;99986.22;;;6.43;100.00
4972;BME280;2501;51.214;6.768;2024-02-26T12:15:19;99990.56;;;6.41;100.00
4972;BME280;2501;51.214;6.768;2024-02-26T12:17:48;99995.06;;;6.54;100.00
4972;BME280;2501;51.214;6.768;2024-02-26T12:20:18;99997.72;;;6.63;100.00
4972;BME280;2501;51.214;6.768;2024-02-26T12:22:50;99992.97;;;6.24;100.00
4972;BME280;2501;51.214;6.768;2024-02-26T12:25:22;100000.09;;;6.39;100.00
4972;BME280;2501;51.214;6.768;2024-02-26T12:27:55;100001.09;;;6.50;100.00
4972;BME280;2501;51.214;6.768;2024-02-26T12:30:23;100007.84;;;6.33;100.00
4972;BME280;2501;51.214;6.768;2024-02-26T12:32:55;100009.72;;;6.46;100.00
4972;BME280;2501;51.214;6.768;2024-02-26T12:35:26;100012.25;;;6.41;100.00
4972;BME280;2501;51.214;6.768;2024-02-26T12:37:57;100014.88;;;6.40;100.00
4972;BME280;2501;51.214;6.768;2024-02-26T12:40:26;100018.13;;;6.23;100.00
4972;BME280;2501;51.214;6.768;2024-02-26T12:42:57;100026.63;;;6.04;100.00
4972;BME280;2501;51.214;6.768;2024-02-26T12:45:27;100030.44;;;6.35;100.00
4972;BME280;2501;51.214;6.768;2024-02-26T12:47:57;100032.38;;;6.53;100.00
4972;BME280;2501;51.214;6.768;2024-02-26T12:50:27;100039.84;;;6.24;100.00
4972;BME280;2501;51.214;6.768;2024-02-26T12:52:58;100044.28;;;6.31;100.00
4972;BME280;2501;51.214;6.768;2024-02-26T12:55:27;100053.53;;;6.05;100.00
4972;BME280;2501;51.214;6.768;2024-02-26T12:57:59;100054.59;;;6.20;100.00
4972;BME280;2501;51.214;6.768;2024-02-26T13:00:28;100057.13;;;6.16;100.00
4972;BME280;2501;51.214;6.768;2024-02-26T13:02:59;100067.06;;;6.49;100.00
4972;BME280;2501;51.214;6.768;2024-02-26T13:05:30;100067.09;;;6.50;100.00
4972;BME280;2501;51.214;6.768;2024-02-26T13:07:59;100072.22;;;6.46;100.00
4972;BME280;2501;51.214;6.768;2024-02-26T13:10:28;100081.59;;;6.30;100.00
4972;BME280;2501;51.214;6.768;2024-02-26T13:13:02;100085.69;;;6.11;100.00
4972;BME280;2501;51.214;6.768;2024-02-26T13:15:31;100087.69;;;6.31;100.00
4972;BME280;2501;51.214;6.768;2024-02-26T13:18:09;100097.47;;;6.50;100.00
4972;BME280;2501;51.214;6.768;2024-02-26T13:20:37;100096.56;;;6.48;100.00
4972;BME280;2501;51.214;6.768;2024-02-26T13:23:07;100102.78;;;6.60;100.00
4972;BME280;2501;51.214;6.768;2024-02-26T13:25:36;100107.19;;;6.64;100.00
4972;BME280;2501;51.214;6.768;2024-02-26T13:28:14;100104.56;;;6.63;100.00
4972;BME280;2501;51.214;6.768;2024-02-26T13:30:50;100113.00;;;6.44;100.00
4972;BME280;2501;51.214;6.768;2024-02-26T13:33:22;100112.28;;;6.54;100.00